sensor_id;sensor_type;location;lat;lon;timestamp;temperature;humidity
2407;DHT22;37709;53.480;9.688;2023-07-29T00:02:10;15.60;99.90
2407;DHT22;37709;53.480;9.688;2023-07-29T00:04:38;15.50;99.90
2407;DHT22;37709;53.480;9.688;2023-07-29T00:07:05;15.40;99.90
2407;DHT22;37709;53.480;9.688;2023-07-29T00:09:33;15.30;99.90
2407;DHT22;37709;53.480;9.688;2023-07-29T00:12:00;15.40;99.90
2407;DHT22;37709;53.480;9.688;2023-07-29T00:14:27;15.40;99.90
2407;DHT22;37709;53.480;9.688;2023-07-29T00:16:54;15.50;99.90
2407;DHT22;37709;53.480;9.688;2023-07-29T00:19:22;15.50;99.90
2407;DHT22;37709;53.480;9.688;2023-07-29T00:21:50;15.40;99.90
2407;DHT22;37709;53.480;9.688;2023-07-29T00:24:17;15.50;99.90
2407;DHT22;37709;53.480;9.688;2023-07-29T00:26:45;15.60;99.90
2407;DHT22;37709;53.480;9.688;2023-07-29T00:29:12;15.80;99.90
2407;DHT22;37709;53.480;9.688;2023-07-29T00:31:40;15.80;99.90
2407;DHT22;37709;53.480;9.688;2023-07-29T00:34:07;15.90;99.90
2407;DHT22;37709;53.480;9.688;2023-07-29T00:36:35;15.90;99.90
2407;DHT22;37709;53.480;9.688;2023-07-29T00:39:03;15.90;99.90
2407;DHT22;37709;53.480;9.688;2023-07-29T00:41:31;15.90;99.90
2407;DHT22;37709;53.480;9.688;2023-07-29T00:43:59;15.90;99.90
2407;DHT22;37709;53.480;9.688;2023-07-29T00:46:28;15.80;99.90
2407;DHT22;37709;53.480;9.688;2023-07-29T00:56:21;15.80;99.90
2407;DHT22;37709;53.480;9.688;2023-07-29T00:58:48;16.00;99.90
2407;DHT22;37709;53.480;9.688;2023-07-29T01:01:16;16.00;99.90
2407;DHT22;37709;53.480;9.688;2023-07-29T01:03:44;16.10;99.90
2407;DHT22;37709;53.480;9.688;2023-07-29T01:06:50;16.10;99.90
2407;DHT22;37709;53.480;9.688;2023-07-29T01:09:35;16.20;99.90
2407;DHT22;37709;53.480;9.688;2023-07-29T01:12:26;16.20;99.90
2407;DHT22;37709;53.480;9.688;2023-07-29T01:17:42;16.30;99.90
2407;DHT22;37709;53.480;9.688;2023-07-29T01:20:13;16.30;99.90
2407;DHT22;37709;53.480;9.688;2023-07-29T01:22:41;16.40;99.90
2407;DHT22;37709;53.480;9.688;2023-07-29T01:25:09;16.50;99.90
2407;DHT22;37709;53.480;9.688;2023-07-29T01:27:36;16.70;99.90
2407;DHT22;37709;53.480;9.688;2023-07-29T01:30:04;16.80;99.90
2407;DHT22;37709;53.480;9.688;2023-07-29T03:01:56;16.80;99.90
2407;DHT22;37709;53.480;9.688;2023-07-29T03:04:23;16.20;99.90
2407;DHT22;37709;53.480;9.688;2023-07-29T03:06:51;16.20;99.90
2407;DHT22;37709;53.480;9.688;2023-07-29T03:09:19;16.30;99.90
2407;DHT22;37709;53.480;9.688;2023-07-29T03:11:46;16.20;99.90
2407;DHT22;37709;53.480;9.688;2023-07-29T03:14:13;16.10;99.90
2407;DHT22;37709;53.480;9.688;2023-07-29T03:16:41;15.90;99.90
2407;DHT22;37709;53.480;9.688;2023-07-29T03:19:09;16.00;99.90
2407;DHT22;37709;53.480;9.688;2023-07-29T03:21:37;16.20;99.90
2407;DHT22;37709;53.480;9.688;2023-07-29T03:24:05;16.30;99.90
2407;DHT22;37709;53.480;9.688;2023-07-29T03:26:34;16.50;99.90
2407;DHT22;37709;53.480;9.688;2023-07-29T03:29:02;16.50;99.90
2407;DHT22;37709;53.480;9.688;2023-07-29T03:31:31;16.60;99.90
2407;DHT22;37709;53.480;9.688;2023-07-29T03:33:58;16.60;99.90
2407;DHT22;37709;53.480;9.688;2023-07-29T03:36:25;16.70;99.90
2407;DHT22;37709;53.480;9.688;2023-07-29T03:38:53;16.80;99.90
2407;DHT22;37709;53.480;9.688;2023-07-29T03:41:20;16.80;99.90
2407;DHT22;37709;53.480;9.688;2023-07-29T03:43:47;16.90;99.90
2407;DHT22;37709;53.480;9.688;2023-07-29T03:46:15;16.90;99.90
2407;DHT22;37709;53.480;9.688;2023-07-29T03:48:47;17.00;99.90
2407;DHT22;37709;53.480;9.688;2023-07-29T03:51:14;17.00;99.90
2407;DHT22;37709;53.480;9.688;2023-07-29T03:53:42;17.10;99.90
2407;DHT22;37709;53.480;9.688;2023-07-29T04:18:21;17.10;99.90
2407;DHT22;37709;53.480;9.688;2023-07-29T04:20:49;17.20;99.90
2407;DHT22;37709;53.480;9.688;2023-07-29T04:23:16;17.20;99.90
2407;DHT22;37709;53.480;9.688;2023-07-29T04:25:43;17.30;99.90
2407;DHT22;37709;53.480;9.688;2023-07-29T04:28:11;17.30;99.90
2407;DHT22;37709;53.480;9.688;2023-07-29T04:30:40;17.30;99.90
2407;DHT22;37709;53.480;9.688;2023-07-29T04:33:09;17.30;99.90
2407;DHT22;37709;53.480;9.688;2023-07-29T04:35:38;17.30;99.90
2407;DHT22;37709;53.480;9.688;2023-07-29T04:38:05;17.40;99.90
2407;DHT22;37709;53.480;9.688;2023-07-29T04:40:33;17.40;99.90
2407;DHT22;37709;53.480;9.688;2023-07-29T04:43:01;17.40;99.90
2407;DHT22;37709;53.480;9.688;2023-07-29T04:45:29;17.40;99.90
2407;DHT22;37709;53.480;9.688;2023-07-29T04:47:58;17.40;99.90
2407;DHT22;37709;53.480;9.688;2023-07-29T04:50:26;17.50;99.90
2407;DHT22;37709;53.480;9.688;2023-07-29T04:52:53;17.60;99.90
2407;DHT22;37709;53.480;9.688;2023-07-29T04:55:21;17.80;99.90
2407;DHT22;37709;53.480;9.688;2023-07-29T04:57:48;18.00;99.90
2407;DHT22;37709;53.480;9.688;2023-07-29T05:00:16;18.00;99.90
2407;DHT22;37709;53.480;9.688;2023-07-29T05:02:44;18.10;99.90
2407;DHT22;37709;53.480;9.688;2023-07-29T05:05:11;18.30;99.90
2407;DHT22;37709;53.480;9.688;2023-07-29T05:07:39;18.50;99.90
2407;DHT22;37709;53.480;9.688;2023-07-29T05:10:06;18.70;99.90
2407;DHT22;37709;53.480;9.688;2023-07-29T05:12:34;18.90;99.90
2407;DHT22;37709;53.480;9.688;2023-07-29T05:15:01;19.10;99.90
2407;DHT22;37709;53.480;9.688;2023-07-29T05:17:29;19.20;99.90
2407;DHT22;37709;53.480;9.688;2023-07-29T05:19:57;19.30;99.90
2407;DHT22;37709;53.480;9.688;2023-07-29T05:22:24;19.20;99.90
2407;DHT22;37709;53.480;9.688;2023-07-29T05:24:52;19.00;99.90
2407;DHT22;37709;53.480;9.688;2023-07-29T05:27:19;18.80;99.90
2407;DHT22;37709;53.480;9.688;2023-07-29T05:29:46;18.70;99.90
2407;DHT22;37709;53.480;9.688;2023-07-29T05:32:14;18.50;99.90
2407;DHT22;37709;53.480;9.688;2023-07-29T05:34:42;18.30;99.90
2407;DHT22;37709;53.480;9.688;2023-07-29T05:37:10;18.20;99.90
2407;DHT22;37709;53.480;9.688;2023-07-29T05:39:37;18.10;99.90
2407;DHT22;37709;53.480;9.688;2023-07-29T05:42:05;18.20;99.90
2407;DHT22;37709;53.480;9.688;2023-07-29T05:44:33;18.20;99.90
2407;DHT22;37709;53.480;9.688;2023-07-29T05:47:00;18.20;99.90
2407;DHT22;37709;53.480;9.688;2023-07-29T05:49:28;18.20;99.90
2407;DHT22;37709;53.480;9.688;2023-07-29T05:51:56;18.30;99.90
2407;DHT22;37709;53.480;9.688;2023-07-29T05:54:23;18.50;99.90
2407;DHT22;37709;53.480;9.688;2023-07-29T06:11:37;19.00;99.90
2407;DHT22;37709;53.480;9.688;2023-07-29T06:14:04;19.40;99.90
2407;DHT22;37709;53.480;9.688;2023-07-29T06:16:32;19.10;99.90
2407;DHT22;37709;53.480;9.688;2023-07-29T06:19:00;19.00;99.90
2407;DHT22;37709;53.480;9.688;2023-07-29T06:21:27;18.90;99.90
2407;DHT22;37709;53.480;9.688;2023-07-29T06:23:55;18.90;99.90
2407;DHT22;37709;53.480;9.688;2023-07-29T06:26:22;18.90;99.90
2407;DHT22;37709;53.480;9.688;2023-07-29T06:28:50;18.90;99.90
2407;DHT22;37709;53.480;9.688;2023-07-29T06:31:18;18.70;99.90
2407;DHT22;37709;53.480;9.688;2023-07-29T06:33:47;18.80;99.90
2407;DHT22;37709;53.480;9.688;2023-07-29T06:36:15;18.80;99.90
2407;DHT22;37709;53.480;9.688;2023-07-29T06:38:42;19.20;99.90
2407;DHT22;37709;53.480;9.688;2023-07-29T06:41:09;19.70;99.90
2407;DHT22;37709;53.480;9.688;2023-07-29T06:43:41;20.00;99.90
2407;DHT22;37709;53.480;9.688;2023-07-29T06:46:08;20.10;99.90
2407;DHT22;37709;53.480;9.688;2023-07-29T06:48:36;19.90;99.90
2407;DHT22;37709;53.480;9.688;2023-07-29T06:51:04;19.90;99.90
2407;DHT22;37709;53.480;9.688;2023-07-29T06:53:31;20.00;99.90
2407;DHT22;37709;53.480;9.688;2023-07-29T06:56:01;19.90;99.90
2407;DHT22;37709;53.480;9.688;2023-07-29T06:58:29;19.80;99.90
2407;DHT22;37709;53.480;9.688;2023-07-29T07:00:56;19.50;99.90
2407;DHT22;37709;53.480;9.688;2023-07-29T07:03:24;19.10;99.90
2407;DHT22;37709;53.480;9.688;2023-07-29T07:05:51;19.10;99.90
2407;DHT22;37709;53.480;9.688;2023-07-29T07:08:19;19.00;99.90
2407;DHT22;37709;53.480;9.688;2023-07-29T07:10:49;18.80;99.90
2407;DHT22;37709;53.480;9.688;2023-07-29T07:13:17;18.90;99.90
2407;DHT22;37709;53.480;9.688;2023-07-29T07:15:44;19.10;99.90
2407;DHT22;37709;53.480;9.688;2023-07-29T07:18:12;19.10;99.90
2407;DHT22;37709;53.480;9.688;2023-07-29T07:20:39;19.20;99.90
2407;DHT22;37709;53.480;9.688;2023-07-29T07:23:07;19.30;99.90
2407;DHT22;37709;53.480;9.688;2023-07-29T07:25:38;19.20;99.90
2407;DHT22;37709;53.480;9.688;2023-07-29T07:28:05;19.00;99.90
2407;DHT22;37709;53.480;9.688;2023-07-29T07:30:33;19.00;99.90
2407;DHT22;37709;53.480;9.688;2023-07-29T07:33:00;19.10;99.90
2407;DHT22;37709;53.480;9.688;2023-07-29T07:35:27;19.30;99.90
2407;DHT22;37709;53.480;9.688;2023-07-29T07:37:55;19.30;99.90
2407;DHT22;37709;53.480;9.688;2023-07-29T07:40:22;19.30;99.90
2407;DHT22;37709;53.480;9.688;2023-07-29T07:42:50;19.30;99.90
2407;DHT22;37709;53.480;9.688;2023-07-29T07:45:18;19.20;99.90
2407;DHT22;37709;53.480;9.688;2023-07-29T07:47:45;19.20;99.90
2407;DHT22;37709;53.480;9.688;2023-07-29T07:50:13;19.20;99.90
2407;DHT22;37709;53.480;9.688;2023-07-29T07:52:41;19.20;99.90
2407;DHT22;37709;53.480;9.688;2023-07-29T07:55:08;19.50;99.90
2407;DHT22;37709;53.480;9.688;2023-07-29T07:57:36;19.90;99.90
2407;DHT22;37709;53.480;9.688;2023-07-29T08:00:04;20.00;99.90
2407;DHT22;37709;53.480;9.688;2023-07-29T08:02:39;20.30;99.90
2407;DHT22;37709;53.480;9.688;2023-07-29T08:05:06;20.30;99.90
2407;DHT22;37709;53.480;9.688;2023-07-29T08:07:34;20.40;99.90
2407;DHT22;37709;53.480;9.688;2023-07-29T08:10:01;20.50;99.90
2407;DHT22;37709;53.480;9.688;2023-07-29T08:12:30;20.60;99.90
2407;DHT22;37709;53.480;9.688;2023-07-29T08:14:57;21.10;99.90
2407;DHT22;37709;53.480;9.688;2023-07-29T08:17:24;21.40;99.90
2407;DHT22;37709;53.480;9.688;2023-07-29T08:19:52;21.40;99.90
2407;DHT22;37709;53.480;9.688;2023-07-29T08:22:19;21.10;99.90
2407;DHT22;37709;53.480;9.688;2023-07-29T08:24:48;21.20;99.90
2407;DHT22;37709;53.480;9.688;2023-07-29T08:27:15;21.20;99.90
2407;DHT22;37709;53.480;9.688;2023-07-29T08:29:42;21.20;99.90
2407;DHT22;37709;53.480;9.688;2023-07-29T08:32:10;21.50;99.90
2407;DHT22;37709;53.480;9.688;2023-07-29T08:34:37;21.90;99.90
2407;DHT22;37709;53.480;9.688;2023-07-29T08:37:04;22.50;99.90
2407;DHT22;37709;53.480;9.688;2023-07-29T08:39:32;22.80;99.90
2407;DHT22;37709;53.480;9.688;2023-07-29T08:42:07;22.90;99.90
2407;DHT22;37709;53.480;9.688;2023-07-29T08:44:42;23.00;99.90
2407;DHT22;37709;53.480;9.688;2023-07-29T08:47:11;23.10;99.90
2407;DHT22;37709;53.480;9.688;2023-07-29T08:49:41;23.10;99.90
2407;DHT22;37709;53.480;9.688;2023-07-29T08:52:09;23.30;99.90
2407;DHT22;37709;53.480;9.688;2023-07-29T08:54:38;23.30;99.90
2407;DHT22;37709;53.480;9.688;2023-07-29T08:57:06;23.20;99.90
2407;DHT22;37709;53.480;9.688;2023-07-29T08:59:33;23.30;99.90
2407;DHT22;37709;53.480;9.688;2023-07-29T09:02:01;23.50;99.90
2407;DHT22;37709;53.480;9.688;2023-07-29T09:04:28;23.60;99.90
2407;DHT22;37709;53.480;9.688;2023-07-29T09:06:56;23.80;99.90
2407;DHT22;37709;53.480;9.688;2023-07-29T09:09:25;24.20;99.90
2407;DHT22;37709;53.480;9.688;2023-07-29T09:11:53;25.00;99.90
2407;DHT22;37709;53.480;9.688;2023-07-29T09:14:20;25.60;99.90
2407;DHT22;37709;53.480;9.688;2023-07-29T09:16:48;26.00;99.90
2407;DHT22;37709;53.480;9.688;2023-07-29T09:19:15;27.00;99.90
2407;DHT22;37709;53.480;9.688;2023-07-29T09:21:46;29.20;99.90
2407;DHT22;37709;53.480;9.688;2023-07-29T09:24:16;30.60;99.90
2407;DHT22;37709;53.480;9.688;2023-07-29T09:26:51;31.90;99.90
2407;DHT22;37709;53.480;9.688;2023-07-29T09:29:23;33.90;99.90
2407;DHT22;37709;53.480;9.688;2023-07-29T09:32:18;35.30;99.90
2407;DHT22;37709;53.480;9.688;2023-07-29T09:34:47;35.30;99.90
2407;DHT22;37709;53.480;9.688;2023-07-29T09:37:17;36.60;99.90
2407;DHT22;37709;53.480;9.688;2023-07-29T09:39:45;37.30;99.90
2407;DHT22;37709;53.480;9.688;2023-07-29T09:42:22;38.30;99.90
2407;DHT22;37709;53.480;9.688;2023-07-29T09:44:50;39.80;99.90
2407;DHT22;37709;53.480;9.688;2023-07-29T09:47:22;38.70;99.10
2407;DHT22;37709;53.480;9.688;2023-07-29T09:49:51;37.30;94.60
2407;DHT22;37709;53.480;9.688;2023-07-29T09:52:20;38.70;93.00
2407;DHT22;37709;53.480;9.688;2023-07-29T09:54:48;39.20;91.80
2407;DHT22;37709;53.480;9.688;2023-07-29T09:57:18;37.70;90.30
2407;DHT22;37709;53.480;9.688;2023-07-29T09:59:56;36.30;91.50
2407;DHT22;37709;53.480;9.688;2023-07-29T10:02:23;36.60;91.60
2407;DHT22;37709;53.480;9.688;2023-07-29T10:04:52;34.10;92.20
2407;DHT22;37709;53.480;9.688;2023-07-29T10:07:21;32.30;93.40
2407;DHT22;37709;53.480;9.688;2023-07-29T10:09:50;31.90;92.80
2407;DHT22;37709;53.480;9.688;2023-07-29T10:12:19;31.00;93.40
2407;DHT22;37709;53.480;9.688;2023-07-29T10:14:48;31.30;94.00
2407;DHT22;37709;53.480;9.688;2023-07-29T10:17:16;32.00;94.00
2407;DHT22;37709;53.480;9.688;2023-07-29T10:19:44;35.70;91.80
2407;DHT22;37709;53.480;9.688;2023-07-29T10:22:13;37.20;88.70
2407;DHT22;37709;53.480;9.688;2023-07-29T10:24:44;35.50;90.10
2407;DHT22;37709;53.480;9.688;2023-07-29T10:27:15;33.80;88.90
2407;DHT22;37709;53.480;9.688;2023-07-29T10:29:45;31.80;91.60
2407;DHT22;37709;53.480;9.688;2023-07-29T10:32:13;30.70;93.30
2407;DHT22;37709;53.480;9.688;2023-07-29T10:34:43;29.80;93.00
2407;DHT22;37709;53.480;9.688;2023-07-29T10:37:11;28.80;94.60
2407;DHT22;37709;53.480;9.688;2023-07-29T10:39:39;27.50;96.30
2407;DHT22;37709;53.480;9.688;2023-07-29T10:42:07;26.10;98.20
2407;DHT22;37709;53.480;9.688;2023-07-29T10:47:12;25.40;99.90
2407;DHT22;37709;53.480;9.688;2023-07-29T10:49:43;25.50;99.90
2407;DHT22;37709;53.480;9.688;2023-07-29T10:52:15;26.60;99.90
2407;DHT22;37709;53.480;9.688;2023-07-29T10:54:47;27.50;99.90
2407;DHT22;37709;53.480;9.688;2023-07-29T10:57:15;27.50;99.60
2407;DHT22;37709;53.480;9.688;2023-07-29T10:59:55;31.30;98.30
2407;DHT22;37709;53.480;9.688;2023-07-29T11:03:00;35.80;92.90
2407;DHT22;37709;53.480;9.688;2023-07-29T11:05:48;38.60;88.00
2407;DHT22;37709;53.480;9.688;2023-07-29T11:08:24;41.30;77.20
2407;DHT22;37709;53.480;9.688;2023-07-29T11:13:31;39.70;74.40
2407;DHT22;37709;53.480;9.688;2023-07-29T11:15:59;38.60;72.90
2407;DHT22;37709;53.480;9.688;2023-07-29T11:18:34;38.50;72.10
2407;DHT22;37709;53.480;9.688;2023-07-29T11:21:03;37.50;74.50
2407;DHT22;37709;53.480;9.688;2023-07-29T11:23:32;38.20;72.60
2407;DHT22;37709;53.480;9.688;2023-07-29T11:26:01;40.00;68.30
2407;DHT22;37709;53.480;9.688;2023-07-29T11:28:29;41.10;66.50
2407;DHT22;37709;53.480;9.688;2023-07-29T11:30:57;38.40;69.50
2407;DHT22;37709;53.480;9.688;2023-07-29T11:33:26;36.00;69.50
2407;DHT22;37709;53.480;9.688;2023-07-29T11:35:55;34.40;72.00
2407;DHT22;37709;53.480;9.688;2023-07-29T11:38:23;35.00;75.20
2407;DHT22;37709;53.480;9.688;2023-07-29T11:41:01;35.30;74.80
2407;DHT22;37709;53.480;9.688;2023-07-29T11:43:36;34.10;72.70
2407;DHT22;37709;53.480;9.688;2023-07-29T11:46:04;33.30;76.60
2407;DHT22;37709;53.480;9.688;2023-07-29T11:48:32;34.50;76.00
2407;DHT22;37709;53.480;9.688;2023-07-29T11:51:00;37.10;72.50
2407;DHT22;37709;53.480;9.688;2023-07-29T11:53:29;38.00;70.40
2407;DHT22;37709;53.480;9.688;2023-07-29T11:56:01;37.80;67.50
2407;DHT22;37709;53.480;9.688;2023-07-29T11:58:28;36.20;70.20
2407;DHT22;37709;53.480;9.688;2023-07-29T12:00:55;34.70;73.90
2407;DHT22;37709;53.480;9.688;2023-07-29T12:03:23;33.30;72.70
2407;DHT22;37709;53.480;9.688;2023-07-29T12:05:51;32.40;76.50
2407;DHT22;37709;53.480;9.688;2023-07-29T12:08:18;31.90;76.40
2407;DHT22;37709;53.480;9.688;2023-07-29T12:10:46;32.50;74.40
2407;DHT22;37709;53.480;9.688;2023-07-29T12:13:15;33.80;75.20
2407;DHT22;37709;53.480;9.688;2023-07-29T12:15:42;35.70;73.00
2407;DHT22;37709;53.480;9.688;2023-07-29T12:18:10;38.20;68.30
2407;DHT22;37709;53.480;9.688;2023-07-29T12:20:39;39.50;64.60
2407;DHT22;37709;53.480;9.688;2023-07-29T12:23:07;40.20;60.50
2407;DHT22;37709;53.480;9.688;2023-07-29T12:25:35;40.20;62.10
2407;DHT22;37709;53.480;9.688;2023-07-29T12:28:06;40.40;59.20
2407;DHT22;37709;53.480;9.688;2023-07-29T12:30:34;40.60;60.00
2407;DHT22;37709;53.480;9.688;2023-07-29T12:33:08;38.00;62.50
2407;DHT22;37709;53.480;9.688;2023-07-29T12:35:38;37.60;62.80
2407;DHT22;37709;53.480;9.688;2023-07-29T12:38:06;36.20;65.40
2407;DHT22;37709;53.480;9.688;2023-07-29T12:40:38;35.10;67.80
2407;DHT22;37709;53.480;9.688;2023-07-29T12:43:05;38.00;62.00
2407;DHT22;37709;53.480;9.688;2023-07-29T12:45:37;38.90;61.50
2407;DHT22;37709;53.480;9.688;2023-07-29T12:48:07;39.60;59.70
2407;DHT22;37709;53.480;9.688;2023-07-29T12:50:35;37.20;62.30
2407;DHT22;37709;53.480;9.688;2023-07-29T12:53:04;35.30;64.80
2407;DHT22;37709;53.480;9.688;2023-07-29T12:55:32;33.50;66.20
2407;DHT22;37709;53.480;9.688;2023-07-29T12:57:59;35.70;68.10
2407;DHT22;37709;53.480;9.688;2023-07-29T13:00:28;35.80;65.70
2407;DHT22;37709;53.480;9.688;2023-07-29T13:02:55;36.20;66.30
2407;DHT22;37709;53.480;9.688;2023-07-29T13:05:23;35.10;65.60
2407;DHT22;37709;53.480;9.688;2023-07-29T13:07:50;33.50;68.00
2407;DHT22;37709;53.480;9.688;2023-07-29T13:10:18;31.70;69.10
2407;DHT22;37709;53.480;9.688;2023-07-29T13:12:45;32.30;71.00
2407;DHT22;37709;53.480;9.688;2023-07-29T13:15:12;33.80;67.60
2407;DHT22;37709;53.480;9.688;2023-07-29T13:17:39;35.60;67.40
2407;DHT22;37709;53.480;9.688;2023-07-29T13:20:07;35.90;64.30
2407;DHT22;37709;53.480;9.688;2023-07-29T13:22:35;34.80;66.30
2407;DHT22;37709;53.480;9.688;2023-07-29T13:25:02;34.40;66.90
2407;DHT22;37709;53.480;9.688;2023-07-29T13:27:30;36.00;64.90
2407;DHT22;37709;53.480;9.688;2023-07-29T13:29:57;38.40;61.80
2407;DHT22;37709;53.480;9.688;2023-07-29T13:32:25;36.70;62.10
2407;DHT22;37709;53.480;9.688;2023-07-29T13:34:52;35.80;63.80
2407;DHT22;37709;53.480;9.688;2023-07-29T13:37:20;35.70;64.20
2407;DHT22;37709;53.480;9.688;2023-07-29T13:39:47;34.40;67.30
2407;DHT22;37709;53.480;9.688;2023-07-29T13:42:14;37.10;64.80
2407;DHT22;37709;53.480;9.688;2023-07-29T13:44:42;36.90;63.80
2407;DHT22;37709;53.480;9.688;2023-07-29T13:47:09;38.10;62.10
2407;DHT22;37709;53.480;9.688;2023-07-29T13:49:40;36.40;64.50
2407;DHT22;37709;53.480;9.688;2023-07-29T13:59:32;36.10;63.50
2407;DHT22;37709;53.480;9.688;2023-07-29T14:01:59;38.40;58.60
2407;DHT22;37709;53.480;9.688;2023-07-29T14:24:14;37.40;59.90
2407;DHT22;37709;53.480;9.688;2023-07-29T14:26:42;39.50;55.00
2407;DHT22;37709;53.480;9.688;2023-07-29T14:29:09;39.30;55.10
2407;DHT22;37709;53.480;9.688;2023-07-29T14:31:36;39.70;55.70
2407;DHT22;37709;53.480;9.688;2023-07-29T14:34:04;39.20;55.70
2407;DHT22;37709;53.480;9.688;2023-07-29T15:25:57;39.00;54.80
2407;DHT22;37709;53.480;9.688;2023-07-29T15:28:25;31.40;64.30
2407;DHT22;37709;53.480;9.688;2023-07-29T15:30:53;30.50;65.20
2407;DHT22;37709;53.480;9.688;2023-07-29T15:33:21;29.60;68.60
2407;DHT22;37709;53.480;9.688;2023-07-29T15:35:48;28.90;71.00
2407;DHT22;37709;53.480;9.688;2023-07-29T15:38:15;28.50;73.10
2407;DHT22;37709;53.480;9.688;2023-07-29T15:55:30;28.00;73.30
2407;DHT22;37709;53.480;9.688;2023-07-29T16:02:57;25.40;85.10
2407;DHT22;37709;53.480;9.688;2023-07-29T16:05:25;20.70;99.90
2407;DHT22;37709;53.480;9.688;2023-07-29T16:07:52;19.60;99.90
2407;DHT22;37709;53.480;9.688;2023-07-29T16:10:21;19.00;99.90
2407;DHT22;37709;53.480;9.688;2023-07-29T16:12:49;19.00;99.90
2407;DHT22;37709;53.480;9.688;2023-07-29T16:15:16;18.90;99.90
2407;DHT22;37709;53.480;9.688;2023-07-29T16:17:43;19.10;99.90
2407;DHT22;37709;53.480;9.688;2023-07-29T16:20:11;19.20;99.90
2407;DHT22;37709;53.480;9.688;2023-07-29T16:22:38;19.10;99.90
2407;DHT22;37709;53.480;9.688;2023-07-29T16:25:06;19.20;99.90
2407;DHT22;37709;53.480;9.688;2023-07-29T16:27:33;19.30;99.90
2407;DHT22;37709;53.480;9.688;2023-07-29T16:30:02;19.50;99.90
2407;DHT22;37709;53.480;9.688;2023-07-29T16:32:31;19.60;99.90
2407;DHT22;37709;53.480;9.688;2023-07-29T16:34:59;19.70;99.90
2407;DHT22;37709;53.480;9.688;2023-07-29T16:37:27;19.80;99.90
2407;DHT22;37709;53.480;9.688;2023-07-29T16:39:54;19.60;99.90
2407;DHT22;37709;53.480;9.688;2023-07-29T16:42:21;19.70;99.90
2407;DHT22;37709;53.480;9.688;2023-07-29T16:44:48;19.80;99.90
2407;DHT22;37709;53.480;9.688;2023-07-29T16:47:16;19.70;99.90
2407;DHT22;37709;53.480;9.688;2023-07-29T16:49:44;19.40;99.90
2407;DHT22;37709;53.480;9.688;2023-07-29T16:52:12;19.30;99.90
2407;DHT22;37709;53.480;9.688;2023-07-29T16:54:39;19.30;99.90
2407;DHT22;37709;53.480;9.688;2023-07-29T16:57:06;19.20;99.90
2407;DHT22;37709;53.480;9.688;2023-07-29T16:59:34;19.20;99.90
2407;DHT22;37709;53.480;9.688;2023-07-29T17:02:02;19.00;99.90
2407;DHT22;37709;53.480;9.688;2023-07-29T17:04:34;18.70;99.90
2407;DHT22;37709;53.480;9.688;2023-07-29T17:07:03;18.50;99.90
2407;DHT22;37709;53.480;9.688;2023-07-29T17:09:30;18.40;99.90
2407;DHT22;37709;53.480;9.688;2023-07-29T17:11:57;18.20;99.90
2407;DHT22;37709;53.480;9.688;2023-07-29T17:14:26;18.20;99.90
2407;DHT22;37709;53.480;9.688;2023-07-29T17:16:55;18.20;99.90
2407;DHT22;37709;53.480;9.688;2023-07-29T17:19:22;18.20;99.90
2407;DHT22;37709;53.480;9.688;2023-07-29T17:21:49;18.10;99.90
2407;DHT22;37709;53.480;9.688;2023-07-29T17:24:17;17.90;99.90
2407;DHT22;37709;53.480;9.688;2023-07-29T17:26:44;17.80;99.90
2407;DHT22;37709;53.480;9.688;2023-07-29T17:29:12;17.90;99.90
2407;DHT22;37709;53.480;9.688;2023-07-29T17:31:39;17.90;99.90
2407;DHT22;37709;53.480;9.688;2023-07-29T17:34:11;17.90;99.90
2407;DHT22;37709;53.480;9.688;2023-07-29T17:36:38;17.90;99.90
2407;DHT22;37709;53.480;9.688;2023-07-29T17:39:07;17.80;99.90
2407;DHT22;37709;53.480;9.688;2023-07-29T17:41:34;17.70;99.90
2407;DHT22;37709;53.480;9.688;2023-07-29T17:44:02;17.80;99.90
2407;DHT22;37709;53.480;9.688;2023-07-29T17:46:29;17.80;99.90
2407;DHT22;37709;53.480;9.688;2023-07-29T17:48:57;17.90;99.90
2407;DHT22;37709;53.480;9.688;2023-07-29T17:51:24;18.00;99.90
2407;DHT22;37709;53.480;9.688;2023-07-29T17:53:51;18.10;99.90
2407;DHT22;37709;53.480;9.688;2023-07-29T17:56:19;18.30;99.90
2407;DHT22;37709;53.480;9.688;2023-07-29T17:58:46;18.40;99.90
2407;DHT22;37709;53.480;9.688;2023-07-29T18:01:15;18.30;99.90
2407;DHT22;37709;53.480;9.688;2023-07-29T18:03:42;18.30;99.90
2407;DHT22;37709;53.480;9.688;2023-07-29T18:06:13;18.10;99.90
2407;DHT22;37709;53.480;9.688;2023-07-29T18:08:40;18.10;99.90
2407;DHT22;37709;53.480;9.688;2023-07-29T18:11:08;18.00;99.90
2407;DHT22;37709;53.480;9.688;2023-07-29T18:13:36;17.90;99.90
2407;DHT22;37709;53.480;9.688;2023-07-29T18:16:04;17.90;99.90
2407;DHT22;37709;53.480;9.688;2023-07-29T18:18:32;17.90;99.90
2407;DHT22;37709;53.480;9.688;2023-07-29T18:20:59;17.90;99.90
2407;DHT22;37709;53.480;9.688;2023-07-29T18:23:27;18.00;99.90
2407;DHT22;37709;53.480;9.688;2023-07-29T18:25:55;18.00;99.90
2407;DHT22;37709;53.480;9.688;2023-07-29T18:28:24;18.10;99.90
2407;DHT22;37709;53.480;9.688;2023-07-29T18:30:51;18.00;99.90
2407;DHT22;37709;53.480;9.688;2023-07-29T18:33:18;17.80;99.90
2407;DHT22;37709;53.480;9.688;2023-07-29T18:35:46;17.80;99.90
2407;DHT22;37709;53.480;9.688;2023-07-29T18:38:13;17.70;99.90
2407;DHT22;37709;53.480;9.688;2023-07-29T18:40:41;17.70;99.90
2407;DHT22;37709;53.480;9.688;2023-07-29T18:43:09;17.60;99.90
2407;DHT22;37709;53.480;9.688;2023-07-29T18:45:37;17.40;99.90
2407;DHT22;37709;53.480;9.688;2023-07-29T18:48:05;17.30;99.90
2407;DHT22;37709;53.480;9.688;2023-07-29T18:50:34;17.20;99.90
2407;DHT22;37709;53.480;9.688;2023-07-29T18:53:03;17.10;99.90
2407;DHT22;37709;53.480;9.688;2023-07-29T18:55:30;17.00;99.90
2407;DHT22;37709;53.480;9.688;2023-07-29T18:57:58;16.90;99.90
2407;DHT22;37709;53.480;9.688;2023-07-29T19:00:25;16.90;99.90
2407;DHT22;37709;53.480;9.688;2023-07-29T19:02:52;16.70;99.90
2407;DHT22;37709;53.480;9.688;2023-07-29T19:05:21;16.60;99.90
2407;DHT22;37709;53.480;9.688;2023-07-29T19:07:48;16.50;99.90
2407;DHT22;37709;53.480;9.688;2023-07-29T19:10:16;16.40;99.90
2407;DHT22;37709;53.480;9.688;2023-07-29T19:12:43;16.40;99.90
2407;DHT22;37709;53.480;9.688;2023-07-29T19:15:13;16.40;99.90
2407;DHT22;37709;53.480;9.688;2023-07-29T19:17:40;16.40;99.90
2407;DHT22;37709;53.480;9.688;2023-07-29T19:20:08;16.30;99.90
2407;DHT22;37709;53.480;9.688;2023-07-29T19:22:35;16.20;99.90
2407;DHT22;37709;53.480;9.688;2023-07-29T19:25:03;16.10;99.90
2407;DHT22;37709;53.480;9.688;2023-07-29T19:27:40;16.00;99.90
2407;DHT22;37709;53.480;9.688;2023-07-29T19:30:22;16.00;99.90
2407;DHT22;37709;53.480;9.688;2023-07-29T19:33:02;15.90;99.90
2407;DHT22;37709;53.480;9.688;2023-07-29T19:35:45;15.90;99.90
2407;DHT22;37709;53.480;9.688;2023-07-29T19:38:21;15.80;99.90
2407;DHT22;37709;53.480;9.688;2023-07-29T19:40:53;15.80;99.90
2407;DHT22;37709;53.480;9.688;2023-07-29T19:43:20;15.60;99.90
2407;DHT22;37709;53.480;9.688;2023-07-29T19:45:49;15.50;99.90
2407;DHT22;37709;53.480;9.688;2023-07-29T19:48:36;15.50;99.90
2407;DHT22;37709;53.480;9.688;2023-07-29T19:51:03;15.40;99.90
2407;DHT22;37709;53.480;9.688;2023-07-29T19:53:30;15.30;99.90